createdAt,value
2018-01-19T00:01:18.557Z,0.80
2018-01-19T00:03:46.126Z,0.80
2018-01-19T00:06:14.252Z,0.80
2018-01-19T00:08:42.140Z,0.80
2018-01-19T00:11:10.494Z,0.70
2018-01-19T00:13:38.073Z,0.70
2018-01-19T00:16:05.854Z,0.70
2018-01-19T00:18:36.113Z,0.70
2018-01-19T00:21:03.701Z,0.70
2018-01-19T00:23:31.283Z,0.70
2018-01-19T00:25:59.083Z,0.70
2018-01-19T00:28:27.037Z,0.70
2018-01-19T00:30:54.618Z,0.70
2018-01-19T00:33:23.006Z,0.70
2018-01-19T00:35:51.358Z,0.70
2018-01-19T00:38:18.951Z,0.70
2018-01-19T00:40:47.404Z,0.70
2018-01-19T00:43:14.986Z,0.70
2018-01-19T00:45:43.546Z,0.70
2018-01-19T00:48:11.127Z,0.70
2018-01-19T00:50:38.838Z,0.80
2018-01-19T00:53:06.582Z,0.80
2018-01-19T00:55:35.104Z,0.80
2018-01-19T00:58:02.708Z,0.80
2018-01-19T01:00:30.302Z,0.80
2018-01-19T01:02:59.106Z,0.80
2018-01-19T01:05:28.299Z,0.80
2018-01-19T01:07:56.547Z,0.90
2018-01-19T01:10:24.221Z,0.90
2018-01-19T01:12:51.802Z,0.90
2018-01-19T01:15:19.394Z,0.90
2018-01-19T01:17:46.978Z,0.90
2018-01-19T01:20:14.836Z,0.90
2018-01-19T01:22:44.171Z,0.90
2018-01-19T01:25:11.754Z,0.90
2018-01-19T01:27:39.442Z,0.90
2018-01-19T01:30:07.781Z,0.90
2018-01-19T01:32:35.371Z,0.90
2018-01-19T01:35:03.044Z,0.90
2018-01-19T01:37:31.394Z,0.90
2018-01-19T01:39:58.975Z,0.90
2018-01-19T01:42:26.559Z,0.90
2018-01-19T01:44:54.950Z,0.80
2018-01-19T01:47:23.298Z,0.80
2018-01-19T01:49:51.058Z,0.80
2018-01-19T01:52:18.642Z,0.90
2018-01-19T01:54:46.230Z,0.90
2018-01-19T01:57:14.579Z,0.90
2018-01-19T01:59:42.223Z,0.90
2018-01-19T02:02:09.847Z,0.90
2018-01-19T02:04:38.330Z,1.00
2018-01-19T02:07:05.918Z,0.90
2018-01-19T02:09:33.495Z,1.00
2018-01-19T02:12:01.106Z,1.00
2018-01-19T02:14:28.924Z,1.00
2018-01-19T02:16:56.510Z,1.00
2018-01-19T02:19:24.090Z,1.00
2018-01-19T02:21:51.668Z,1.00
2018-01-19T02:24:19.270Z,1.00
2018-01-19T02:26:46.850Z,1.00
2018-01-19T02:29:14.504Z,1.00
2018-01-19T02:31:42.090Z,1.00
2018-01-19T02:34:09.670Z,1.00
2018-01-19T02:36:37.351Z,1.00
2018-01-19T02:39:04.966Z,1.00
2018-01-19T02:41:32.663Z,1.00
2018-01-19T02:44:00.391Z,0.90
2018-01-19T02:46:27.982Z,0.90
2018-01-19T02:48:55.610Z,0.80
2018-01-19T02:51:24.021Z,0.80
2018-01-19T02:53:51.675Z,0.80
2018-01-19T02:56:22.092Z,0.80
2018-01-19T02:58:49.695Z,0.80
2018-01-19T03:01:17.341Z,0.70
2018-01-19T03:03:44.954Z,0.80
2018-01-19T03:06:12.734Z,0.80
2018-01-19T03:08:41.375Z,0.70
2018-01-19T03:11:09.078Z,0.70
2018-01-19T03:13:36.654Z,0.70
2018-01-19T03:16:04.263Z,0.70
2018-01-19T03:18:33.121Z,0.80
2018-01-19T03:21:00.847Z,0.80
2018-01-19T03:23:28.438Z,0.70
2018-01-19T03:25:56.028Z,0.80
2018-01-19T03:28:23.630Z,0.80
2018-01-19T03:30:51.268Z,0.70
2018-01-19T03:33:18.866Z,0.70
2018-01-19T03:35:46.450Z,0.70
2018-01-19T03:38:14.029Z,0.70
2018-01-19T03:40:41.626Z,0.80
2018-01-19T03:43:09.202Z,0.80
2018-01-19T03:45:36.908Z,0.80
2018-01-19T03:48:04.482Z,0.80
2018-01-19T03:50:32.234Z,0.80
2018-01-19T03:52:59.835Z,0.80
2018-01-19T03:55:27.451Z,0.70
2018-01-19T03:57:55.042Z,0.70
2018-01-19T04:00:22.654Z,0.80
2018-01-19T04:02:50.233Z,0.70
2018-01-19T04:05:17.815Z,0.70
2018-01-19T04:07:45.395Z,0.70
2018-01-19T04:10:12.986Z,0.70
2018-01-19T04:12:40.589Z,0.70
2018-01-19T04:15:08.463Z,0.70
2018-01-19T04:17:36.067Z,0.70
2018-01-19T04:20:03.782Z,0.70
2018-01-19T04:22:31.384Z,0.80
2018-01-19T04:24:58.994Z,0.70
2018-01-19T04:27:27.454Z,0.70
2018-01-19T04:29:55.030Z,0.70
2018-01-19T04:32:22.805Z,0.70
2018-01-19T04:34:51.378Z,0.80
2018-01-19T04:37:18.966Z,0.80
2018-01-19T04:39:47.371Z,0.80
2018-01-19T04:42:14.984Z,0.80
2018-01-19T04:44:42.591Z,0.80
2018-01-19T04:47:10.970Z,0.70
2018-01-19T04:49:39.038Z,0.70
2018-01-19T04:52:06.649Z,0.70
2018-01-19T04:54:34.350Z,0.60
2018-01-19T04:57:01.961Z,0.70
2018-01-19T04:59:29.582Z,0.60
2018-01-19T05:01:57.189Z,0.60
2018-01-19T05:04:24.916Z,0.70
2018-01-19T05:06:52.542Z,0.60
2018-01-19T05:09:20.255Z,0.60
2018-01-19T05:11:47.865Z,0.60
2018-01-19T05:14:15.701Z,0.60
2018-01-19T05:16:44.070Z,0.60
2018-01-19T05:19:11.703Z,0.50
2018-01-19T05:21:39.371Z,0.50
2018-01-19T05:24:06.981Z,0.60
2018-01-19T05:26:35.346Z,0.60
2018-01-19T05:29:02.961Z,0.60
2018-01-19T05:31:30.590Z,0.60
2018-01-19T05:33:59.170Z,0.60
2018-01-19T05:36:26.834Z,0.50
2018-01-19T05:38:54.482Z,0.50
2018-01-19T05:41:22.098Z,0.50
2018-01-19T05:43:49.717Z,0.50
2018-01-19T05:46:17.341Z,0.50
2018-01-19T05:48:44.956Z,0.40
2018-01-19T05:51:12.557Z,0.40
2018-01-19T05:53:40.198Z,0.40
2018-01-19T05:56:07.833Z,0.40
2018-01-19T05:58:35.453Z,0.40
2018-01-19T06:01:03.056Z,0.50
2018-01-19T06:03:30.705Z,0.50
2018-01-19T06:05:58.365Z,0.60
2018-01-19T06:08:25.997Z,0.60
2018-01-19T06:10:54.361Z,0.60
2018-01-19T06:13:22.074Z,0.70
2018-01-19T06:15:49.682Z,0.70
2018-01-19T06:18:17.297Z,0.70
2018-01-19T06:20:44.953Z,0.70
2018-01-19T06:23:13.353Z,0.70
2018-01-19T06:25:40.962Z,0.70
2018-01-19T06:28:08.602Z,0.70
2018-01-19T06:30:36.225Z,0.70
2018-01-19T06:33:04.652Z,0.70
2018-01-19T06:35:32.253Z,0.70
2018-01-19T06:37:59.862Z,0.70
2018-01-19T06:40:27.470Z,0.70
2018-01-19T06:42:55.081Z,0.70
2018-01-19T06:45:22.694Z,0.70
2018-01-19T06:47:50.365Z,0.80
2018-01-19T06:50:17.977Z,0.70
2018-01-19T06:52:46.353Z,0.70
2018-01-19T06:55:13.957Z,0.70
2018-01-19T06:57:41.574Z,0.80
2018-01-19T07:00:09.299Z,0.80
2018-01-19T07:02:36.927Z,0.70
2018-01-19T07:05:05.305Z,0.80
2018-01-19T07:07:32.930Z,0.80
2018-01-19T07:10:00.642Z,0.80
2018-01-19T07:12:29.058Z,0.80
2018-01-19T07:14:56.665Z,0.80
2018-01-19T07:17:24.323Z,0.80
2018-01-19T07:19:51.942Z,0.80
2018-01-19T07:22:19.574Z,0.80
2018-01-19T07:24:47.223Z,0.80
2018-01-19T07:27:14.838Z,0.80
2018-01-19T07:29:42.469Z,0.80
2018-01-19T07:32:10.073Z,0.80
2018-01-19T07:34:37.741Z,0.80
2018-01-19T07:37:05.374Z,0.80
2018-01-19T07:39:33.792Z,0.80
2018-01-19T07:42:01.490Z,0.80
2018-01-19T07:44:29.105Z,0.90
2018-01-19T07:46:56.746Z,0.80
2018-01-19T07:49:24.369Z,0.80
2018-01-19T07:51:51.974Z,0.80
2018-01-19T07:54:19.606Z,0.90
2018-01-19T07:56:47.319Z,0.90
2018-01-19T07:59:14.894Z,0.90
2018-01-19T08:01:43.287Z,0.90
2018-01-19T08:04:10.897Z,0.80
2018-01-19T08:06:38.507Z,0.90
2018-01-19T08:09:06.159Z,0.90
2018-01-19T08:11:34.613Z,1.00
2018-01-19T08:14:02.239Z,0.90
2018-01-19T08:16:29.846Z,1.00
2018-01-19T08:18:57.486Z,1.00
2018-01-19T08:21:25.150Z,1.00
2018-01-19T08:23:52.745Z,1.00
2018-01-19T08:26:20.356Z,1.00
2018-01-19T08:28:47.962Z,1.00
2018-01-19T08:31:15.826Z,1.00
2018-01-19T08:33:43.431Z,1.00
2018-01-19T08:36:11.074Z,1.10
2018-01-19T08:38:38.693Z,1.10
2018-01-19T08:41:06.306Z,1.10
2018-01-19T08:43:33.911Z,1.10
2018-01-19T08:46:01.518Z,1.10
2018-01-19T08:48:29.163Z,1.10
2018-01-19T08:50:56.773Z,1.10
2018-01-19T08:53:24.385Z,1.10
2018-01-19T08:55:52.037Z,1.10
2018-01-19T08:58:20.552Z,1.20
2018-01-19T09:00:48.350Z,1.20
2018-01-19T09:03:16.970Z,1.30
2018-01-19T09:05:45.318Z,1.50
2018-01-19T09:08:13.835Z,1.50
2018-01-19T09:10:42.298Z,1.50
2018-01-19T09:13:09.885Z,1.50
2018-01-19T09:15:37.531Z,1.50
2018-01-19T09:18:05.122Z,1.50
2018-01-19T09:20:33.533Z,1.50
2018-01-19T09:23:01.138Z,1.60
2018-01-19T09:25:33.416Z,1.60
2018-01-19T09:28:01.052Z,1.60
2018-01-19T09:30:28.720Z,1.60
2018-01-19T09:32:58.324Z,1.50
2018-01-19T09:35:25.901Z,1.40
2018-01-19T09:37:53.490Z,1.50
2018-01-19T09:40:21.071Z,1.50
2018-01-19T09:42:48.699Z,1.40
2018-01-19T09:45:16.299Z,1.40
2018-01-19T09:47:43.957Z,1.40
2018-01-19T09:50:11.554Z,1.40
2018-01-19T09:52:43.810Z,1.40
2018-01-19T09:55:12.276Z,1.30
2018-01-19T09:57:39.863Z,1.30
2018-01-19T10:00:07.454Z,1.40
2018-01-19T10:02:35.038Z,1.40
2018-01-19T10:05:02.643Z,1.50
2018-01-19T10:07:30.233Z,1.50
2018-01-19T10:09:58.646Z,1.70
2018-01-19T10:12:26.221Z,1.70
2018-01-19T10:14:53.806Z,1.60
2018-01-19T10:17:21.398Z,1.70
2018-01-19T10:19:49.757Z,1.80
2018-01-19T10:22:17.338Z,1.80
2018-01-19T10:24:44.918Z,1.80
2018-01-19T10:27:13.270Z,1.70
2018-01-19T10:29:40.862Z,1.70
2018-01-19T10:32:09.255Z,1.70
2018-01-19T10:34:37.609Z,1.70
2018-01-19T10:37:05.204Z,1.60
2018-01-19T10:39:32.810Z,1.60
2018-01-19T10:42:00.400Z,1.60
2018-01-19T10:44:28.006Z,1.60
2018-01-19T10:46:55.658Z,1.60
2018-01-19T10:49:24.014Z,1.70
2018-01-19T10:51:51.609Z,1.70
2018-01-19T10:54:19.969Z,1.70
2018-01-19T10:56:47.551Z,1.70
2018-01-19T10:59:16.027Z,1.70
2018-01-19T11:01:44.403Z,1.60
2018-01-19T11:04:11.978Z,1.70
2018-01-19T11:06:40.404Z,1.80
2018-01-19T11:09:07.991Z,1.70
2018-01-19T11:11:35.641Z,1.80
2018-01-19T11:14:03.250Z,1.90
2018-01-19T11:16:30.870Z,2.00
2018-01-19T11:18:58.455Z,2.10
2018-01-19T11:21:26.058Z,2.10
2018-01-19T11:23:54.478Z,2.20
2018-01-19T11:26:22.087Z,2.20
2018-01-19T11:28:49.674Z,2.30
2018-01-19T11:31:18.032Z,2.40
2018-01-19T11:33:45.619Z,2.40
2018-01-19T11:36:13.970Z,2.40
2018-01-19T11:38:41.562Z,2.30
2018-01-19T11:41:09.916Z,2.30
2018-01-19T11:43:37.497Z,2.30
2018-01-19T11:46:05.081Z,2.20
2018-01-19T11:48:33.427Z,2.20
2018-01-19T11:51:01.019Z,2.20
2018-01-19T11:53:29.370Z,2.30
2018-01-19T11:55:56.945Z,2.30
2018-01-19T11:58:24.530Z,2.40
2018-01-19T12:00:52.878Z,2.40
2018-01-19T12:03:20.458Z,2.40
2018-01-19T12:05:48.074Z,2.40
2018-01-19T12:08:15.657Z,2.40
2018-01-19T12:10:43.261Z,2.30
2018-01-19T12:13:10.885Z,2.40
2018-01-19T12:15:38.477Z,2.30
2018-01-19T12:18:13.781Z,2.30
2018-01-19T12:20:41.370Z,2.30
2018-01-19T12:23:08.954Z,2.30
2018-01-19T12:25:36.547Z,2.40
2018-01-19T12:28:04.132Z,2.50
2018-01-19T12:30:31.715Z,2.50
2018-01-19T12:32:59.297Z,2.50
2018-01-19T12:35:26.883Z,2.50
2018-01-19T12:37:54.479Z,2.50
2018-01-19T12:40:22.090Z,2.50
2018-01-19T12:42:49.831Z,2.40
2018-01-19T12:45:17.431Z,2.50
2018-01-19T12:47:45.080Z,2.50
2018-01-19T12:50:12.668Z,2.60
2018-01-19T12:52:40.295Z,2.70
2018-01-19T12:55:07.887Z,2.80
2018-01-19T12:57:35.515Z,2.80
2018-01-19T13:00:03.098Z,2.80
2018-01-19T13:02:30.680Z,3.00
2018-01-19T13:04:59.286Z,3.10
2018-01-19T13:07:26.869Z,3.30
2018-01-19T13:09:55.220Z,3.40
2018-01-19T13:12:22.811Z,3.30
2018-01-19T13:14:51.154Z,3.10
2018-01-19T13:17:18.730Z,3.10
2018-01-19T13:19:46.374Z,3.20
2018-01-19T13:22:13.993Z,3.20
2018-01-19T13:24:42.343Z,2.90
2018-01-19T13:27:09.963Z,2.90
2018-01-19T13:29:37.657Z,2.90
2018-01-19T13:32:05.239Z,2.90
2018-01-19T13:34:32.821Z,2.80
2018-01-19T13:37:00.426Z,2.70
2018-01-19T13:39:28.019Z,2.70
2018-01-19T13:41:55.594Z,2.60
2018-01-19T13:44:23.194Z,2.60
2018-01-19T13:46:51.566Z,2.60
2018-01-19T13:49:19.146Z,2.50
2018-01-19T13:51:47.494Z,2.40
2018-01-19T13:54:15.074Z,2.40
2018-01-19T13:56:42.707Z,2.40
2018-01-19T13:59:10.287Z,2.40
2018-01-19T14:01:37.874Z,2.30
2018-01-19T14:04:06.222Z,2.20
2018-01-19T14:06:33.814Z,2.20
2018-01-19T14:09:01.394Z,2.20
2018-01-19T14:11:29.787Z,2.20
2018-01-19T14:13:57.380Z,2.20
2018-01-19T14:16:24.955Z,2.20
2018-01-19T14:18:52.553Z,2.20
2018-01-19T14:21:20.159Z,2.20
2018-01-19T14:23:47.753Z,2.20
2018-01-19T14:26:15.343Z,2.20
2018-01-19T14:28:42.933Z,2.30
2018-01-19T14:31:10.518Z,2.40
2018-01-19T14:33:38.218Z,2.50
2018-01-19T14:36:05.815Z,2.50
2018-01-19T14:38:34.179Z,2.60
2018-01-19T14:41:01.763Z,2.60
2018-01-19T14:43:29.355Z,2.60
2018-01-19T14:45:56.938Z,2.60
2018-01-19T14:48:24.531Z,2.60
2018-01-19T14:50:52.111Z,2.60
2018-01-19T14:53:19.702Z,2.60
2018-01-19T14:55:48.513Z,2.50
2018-01-19T14:58:16.251Z,2.50
2018-01-19T15:00:43.997Z,2.50
2018-01-19T15:03:11.748Z,2.40
2018-01-19T15:05:39.425Z,2.40
2018-01-19T15:08:07.199Z,2.30
2018-01-19T15:10:34.999Z,2.30
2018-01-19T15:13:03.499Z,2.20
2018-01-19T15:15:31.239Z,2.20
2018-01-19T15:17:58.974Z,2.10
2018-01-19T15:20:26.781Z,2.10
2018-01-19T15:22:54.739Z,2.00
2018-01-19T15:25:22.479Z,2.00
2018-01-19T15:27:50.291Z,2.00
2018-01-19T15:30:18.769Z,1.90
2018-01-19T15:32:46.414Z,1.90
2018-01-19T15:35:14.054Z,1.90
2018-01-19T15:37:41.729Z,1.80
2018-01-19T15:40:10.421Z,1.80
2018-01-19T15:42:38.101Z,1.80
2018-01-19T15:45:05.817Z,1.80
2018-01-19T15:47:33.501Z,1.70
2018-01-19T15:50:01.168Z,1.70
2018-01-19T15:52:28.764Z,1.70
2018-01-19T15:54:56.342Z,1.60
2018-01-19T15:57:23.928Z,1.60
2018-01-19T15:59:51.539Z,1.50
2018-01-19T16:02:19.138Z,1.50
2018-01-19T16:04:46.749Z,1.40
2018-01-19T16:07:14.835Z,1.30
2018-01-19T16:09:42.434Z,1.30
2018-01-19T16:12:10.103Z,1.30
2018-01-19T16:14:38.178Z,1.20
2018-01-19T16:17:05.800Z,1.20
2018-01-19T16:19:33.698Z,1.10
2018-01-19T16:22:01.309Z,1.10
2018-01-19T16:24:28.922Z,1.10
2018-01-19T16:26:57.194Z,1.10
2018-01-19T16:29:25.175Z,1.10
2018-01-19T16:31:52.846Z,1.10
2018-01-19T16:34:21.587Z,1.00
2018-01-19T16:36:49.699Z,1.00
2018-01-19T16:39:17.383Z,1.00
2018-01-19T16:41:45.643Z,1.10
2018-01-19T16:44:13.650Z,1.00
2018-01-19T16:46:44.235Z,1.00
2018-01-19T16:49:13.358Z,1.00
2018-01-19T16:51:45.895Z,1.00
2018-01-19T16:54:14.845Z,0.90
2018-01-19T16:56:42.586Z,0.90
2018-01-19T16:59:11.242Z,0.90
2018-01-19T17:01:38.831Z,0.90
2018-01-19T17:04:07.192Z,0.90
2018-01-19T17:06:34.778Z,0.90
2018-01-19T17:09:03.539Z,0.90
2018-01-19T17:11:31.133Z,0.90
2018-01-19T17:14:01.398Z,0.80
2018-01-19T17:16:29.802Z,0.70
2018-01-19T17:18:57.397Z,0.70
2018-01-19T17:21:24.988Z,0.70
2018-01-19T17:23:52.586Z,0.60
2018-01-19T17:26:23.983Z,0.60
2018-01-19T17:28:51.945Z,0.50
2018-01-19T17:31:20.070Z,0.40
2018-01-19T17:33:47.662Z,0.40
2018-01-19T17:36:17.639Z,0.30
2018-01-19T17:38:45.432Z,0.20
2018-01-19T17:41:13.693Z,0.10
2018-01-19T17:43:41.647Z,0.00
2018-01-19T17:46:10.067Z,-0.10
2018-01-19T17:48:38.790Z,-0.10
2018-01-19T17:51:06.438Z,-0.20
2018-01-19T17:56:09.713Z,-0.30
2018-01-19T17:58:43.206Z,-0.40
2018-01-19T18:01:10.799Z,-0.40
2018-01-19T18:03:39.263Z,-0.40
2018-01-19T18:06:07.895Z,-0.50
2018-01-19T18:08:35.507Z,-0.50
2018-01-19T18:11:06.239Z,-0.50
2018-01-19T18:13:34.730Z,-0.50
2018-01-19T18:16:05.328Z,-0.50
2018-01-19T18:18:37.754Z,-0.50
2018-01-19T18:21:05.389Z,-0.50
2018-01-19T18:23:33.746Z,-0.40
2018-01-19T18:26:02.178Z,-0.40
2018-01-19T18:28:32.624Z,-0.40
2018-01-19T18:31:03.327Z,-0.40
2018-01-19T18:33:30.918Z,-0.40
2018-01-19T18:35:58.674Z,-0.40
2018-01-19T18:38:26.735Z,-0.50
2018-01-19T18:40:55.418Z,-0.50
2018-01-19T18:43:23.193Z,-0.60
2018-01-19T18:45:52.338Z,-0.60
2018-01-19T18:48:20.932Z,-0.60
2018-01-19T18:50:51.356Z,-0.60
2018-01-19T18:53:19.059Z,-0.60
2018-01-19T18:55:46.666Z,-0.60
2018-01-19T18:58:14.319Z,-0.60
2018-01-19T19:00:42.681Z,-0.50
2018-01-19T19:03:11.107Z,-0.50
2018-01-19T19:05:38.714Z,-0.60
2018-01-19T19:08:06.316Z,-0.50
2018-01-19T19:10:34.239Z,-0.50
2018-01-19T19:13:01.887Z,-0.50
2018-01-19T19:15:29.594Z,-0.50
2018-01-19T19:17:57.194Z,-0.60
2018-01-19T19:20:24.803Z,-0.50
2018-01-19T19:22:52.582Z,-0.50
2018-01-19T19:25:20.235Z,-0.40
2018-01-19T19:27:47.851Z,-0.30
2018-01-19T19:30:16.238Z,-0.30
2018-01-19T19:32:43.902Z,-0.20
2018-01-19T19:35:11.582Z,-0.20
2018-01-19T19:37:39.178Z,-0.10
2018-01-19T19:40:06.814Z,-0.10
2018-01-19T19:42:34.453Z,-0.10
2018-01-19T19:45:02.845Z,0.00
2018-01-19T19:47:30.608Z,0.00
2018-01-19T19:52:34.180Z,0.00
2018-01-19T19:55:06.938Z,0.00
2018-01-19T19:57:38.310Z,0.00
2018-01-19T20:00:07.042Z,0.00
2018-01-19T20:02:41.463Z,0.00
2018-01-19T20:05:09.252Z,0.10
2018-01-19T20:07:37.711Z,0.10
2018-01-19T20:10:07.365Z,0.10
2018-01-19T20:12:41.990Z,0.10
2018-01-19T20:15:30.057Z,0.20
2018-01-19T20:17:59.321Z,0.30
2018-01-19T20:20:26.911Z,0.30
2018-01-19T20:22:54.967Z,0.30
2018-01-19T20:25:22.549Z,0.30
2018-01-19T20:27:50.177Z,0.40
2018-01-19T20:30:17.824Z,0.40
2018-01-19T20:32:47.926Z,0.40
2018-01-19T20:35:15.527Z,0.40
2018-01-19T20:37:44.079Z,0.40
2018-01-19T20:40:12.847Z,0.30
2018-01-19T20:42:40.447Z,0.30
2018-01-19T20:45:09.540Z,0.30
2018-01-19T20:47:43.330Z,0.30
2018-01-19T20:50:11.858Z,0.30
2018-01-19T20:52:40.207Z,0.30
2018-01-19T20:55:07.851Z,0.20
2018-01-19T20:57:38.375Z,0.20
2018-01-19T21:00:08.694Z,0.20
2018-01-19T21:02:42.467Z,0.10
2018-01-19T21:05:17.216Z,0.10
2018-01-19T21:07:47.683Z,0.10
2018-01-19T21:10:16.152Z,0.10
2018-01-19T21:12:43.872Z,0.00
2018-01-19T21:15:11.980Z,-0.10
2018-01-19T21:17:39.866Z,-0.10
2018-01-19T21:20:07.868Z,-0.10
2018-01-19T21:22:36.102Z,-0.10
2018-01-19T21:25:03.803Z,-0.10
2018-01-19T21:27:31.442Z,0.00
2018-01-19T21:29:59.944Z,0.00
2018-01-19T21:32:28.375Z,-0.10
2018-01-19T21:34:59.490Z,-0.20
2018-01-19T21:37:27.079Z,-0.10
2018-01-19T21:39:55.556Z,-0.20
2018-01-19T21:42:23.147Z,-0.30
2018-01-19T21:44:51.527Z,-0.40
2018-01-19T21:47:20.920Z,-0.40
2018-01-19T21:49:53.380Z,-0.40
2018-01-19T21:52:23.860Z,-0.40
2018-01-19T21:54:51.464Z,-0.50
2018-01-19T21:57:21.481Z,-0.60
2018-01-19T21:59:51.914Z,-0.60
2018-01-19T22:02:19.523Z,-0.70
2018-01-19T22:04:47.692Z,-0.70
2018-01-19T22:07:15.297Z,-0.80
2018-01-19T22:09:43.738Z,-0.80
2018-01-19T22:12:11.380Z,-1.00
2018-01-19T22:14:38.986Z,-1.00
2018-01-19T22:17:06.595Z,-1.10
2018-01-19T22:19:34.393Z,-1.10
2018-01-19T22:22:01.983Z,-1.20
2018-01-19T22:24:29.879Z,-1.30
2018-01-19T22:26:57.462Z,-1.30
2018-01-19T22:29:25.099Z,-1.40
2018-01-19T22:31:52.730Z,-1.40
2018-01-19T22:34:20.344Z,-1.40
2018-01-19T22:36:48.052Z,-1.50
2018-01-19T22:39:15.681Z,-1.50
2018-01-19T22:41:43.290Z,-1.60
2018-01-19T22:44:10.878Z,-1.60
2018-01-19T22:46:38.559Z,-1.60
2018-01-19T22:49:06.918Z,-1.60
2018-01-19T22:51:35.302Z,-1.70
2018-01-19T22:54:03.658Z,-1.70
2018-01-19T22:56:31.247Z,-1.70
2018-01-19T22:58:59.618Z,-1.80
2018-01-19T23:01:27.238Z,-1.80
2018-01-19T23:03:54.841Z,-1.80
2018-01-19T23:06:22.458Z,-1.80
2018-01-19T23:08:50.047Z,-1.90
2018-01-19T23:11:17.647Z,-1.90
2018-01-19T23:13:45.286Z,-1.80
2018-01-19T23:16:12.891Z,-1.70
2018-01-19T23:18:41.255Z,-1.80
2018-01-19T23:21:08.847Z,-1.90
2018-01-19T23:23:37.210Z,-1.90
2018-01-19T23:26:04.798Z,-1.90
2018-01-19T23:28:33.187Z,-1.60
2018-01-19T23:31:00.775Z,-1.60
2018-01-19T23:33:28.367Z,-1.60
2018-01-19T23:35:55.964Z,-1.60
2018-01-19T23:38:23.563Z,-1.60
2018-01-19T23:40:51.219Z,-1.50
2018-01-19T23:43:18.826Z,-1.50
2018-01-19T23:45:46.435Z,-1.40
2018-01-19T23:48:14.815Z,-1.40
2018-01-19T23:50:43.232Z,-1.40
2018-01-19T23:53:10.839Z,-1.40
2018-01-19T23:55:38.429Z,-1.40
2018-01-19T23:58:06.791Z,-1.40
